createdAt,value
2019-01-25T00:01:35.611Z,60.45
2019-01-25T00:04:03.679Z,66.75
2019-01-25T00:06:31.500Z,64.55
2019-01-25T00:08:59.421Z,61.95
2019-01-25T00:11:27.301Z,58.55
2019-01-25T00:13:55.146Z,59.98
2019-01-25T00:16:22.997Z,62.03
2019-01-25T00:18:50.923Z,70.50
2019-01-25T00:21:18.768Z,60.48
2019-01-25T00:23:46.648Z,61.90
2019-01-25T00:26:14.462Z,63.58
2019-01-25T00:28:42.330Z,60.75
2019-01-25T00:31:10.199Z,63.25
2019-01-25T00:33:38.015Z,53.35
2019-01-25T00:36:05.800Z,61.25
2019-01-25T00:38:33.629Z,54.67
2019-01-25T00:41:01.461Z,66.05
2019-01-25T00:43:29.309Z,52.45
2019-01-25T00:45:57.155Z,60.10
2019-01-25T00:48:24.920Z,54.73
2019-01-25T00:50:52.797Z,58.78
2019-01-25T00:53:20.667Z,57.15
2019-01-25T00:55:48.496Z,56.80
2019-01-25T00:58:16.418Z,58.17
2019-01-25T01:00:44.263Z,63.08
2019-01-25T01:03:12.086Z,54.73
2019-01-25T01:05:39.911Z,63.55
2019-01-25T01:08:43.228Z,50.28
2019-01-25T01:11:11.102Z,53.23
2019-01-25T01:13:38.945Z,62.25
2019-01-25T01:16:06.798Z,58.30
2019-01-25T01:18:54.037Z,54.75
2019-01-25T01:21:21.825Z,61.37
2019-01-25T01:23:49.581Z,62.90
2019-01-25T01:26:18.456Z,59.20
2019-01-25T01:28:46.224Z,65.00
2019-01-25T01:31:14.054Z,63.02
2019-01-25T01:33:41.849Z,54.00
2019-01-25T01:36:09.649Z,64.12
2019-01-25T01:38:37.442Z,63.55
2019-01-25T01:41:05.300Z,61.70
2019-01-25T01:43:33.131Z,53.08
2019-01-25T01:46:00.966Z,59.53
2019-01-25T01:48:28.825Z,62.85
2019-01-25T01:50:56.649Z,60.35
2019-01-25T01:53:24.454Z,65.25
2019-01-25T01:55:52.296Z,47.35
2019-01-25T01:58:20.095Z,56.92
2019-01-25T02:00:47.867Z,52.03
2019-01-25T02:03:15.651Z,58.48
2019-01-25T02:06:03.292Z,59.67
2019-01-25T02:08:36.155Z,54.73
2019-01-25T02:11:04.696Z,61.33
2019-01-25T02:13:32.539Z,59.73
2019-01-25T02:16:00.352Z,55.63
2019-01-25T02:21:39.391Z,53.52
2019-01-25T02:24:07.209Z,63.00
2019-01-25T02:26:34.974Z,51.70
2019-01-25T02:29:07.807Z,55.67
2019-01-25T02:31:35.609Z,71.02
2019-01-25T02:34:03.504Z,58.80
2019-01-25T02:36:31.289Z,51.33
2019-01-25T02:38:59.117Z,58.10
2019-01-25T02:41:26.927Z,65.52
2019-01-25T02:43:54.747Z,57.75
2019-01-25T02:46:22.500Z,46.08
2019-01-25T02:48:50.400Z,56.83
2019-01-25T02:51:18.178Z,49.90
2019-01-25T02:53:45.981Z,58.80
2019-01-25T02:56:14.013Z,61.77
2019-01-25T02:58:56.882Z,65.83
2019-01-25T03:01:24.734Z,50.92
2019-01-25T03:03:52.523Z,58.87
2019-01-25T03:06:20.330Z,67.85
2019-01-25T03:08:48.195Z,61.53
2019-01-25T03:11:16.019Z,76.67
2019-01-25T03:13:43.829Z,62.13
2019-01-25T03:16:11.635Z,53.52
2019-01-25T03:18:39.468Z,57.25
2019-01-25T03:21:07.265Z,54.53
2019-01-25T03:23:35.067Z,58.78
2019-01-25T03:26:02.905Z,58.23
2019-01-25T03:29:01.062Z,58.33
2019-01-25T03:31:28.962Z,47.85
2019-01-25T03:33:56.740Z,51.42
2019-01-25T03:36:24.535Z,70.95
2019-01-25T03:38:52.401Z,57.05
2019-01-25T03:41:20.231Z,58.98
2019-01-25T03:43:48.022Z,55.78
2019-01-25T03:46:15.799Z,47.35
2019-01-25T03:48:53.646Z,57.35
2019-01-25T03:51:21.404Z,52.17
2019-01-25T03:53:49.206Z,51.00
2019-01-25T03:56:17.002Z,52.70
2019-01-25T03:58:56.870Z,48.90
2019-01-25T04:01:24.732Z,49.30
2019-01-25T04:03:52.617Z,53.17
2019-01-25T04:06:20.443Z,55.52
2019-01-25T04:08:48.250Z,60.33
2019-01-25T04:11:16.032Z,43.85
2019-01-25T04:13:43.787Z,45.88
2019-01-25T04:16:11.576Z,46.33
2019-01-25T04:18:39.427Z,43.73
2019-01-25T04:21:07.263Z,49.10
2019-01-25T04:23:35.068Z,42.58
2019-01-25T04:26:02.892Z,40.58
2019-01-25T04:28:35.733Z,50.43
2019-01-25T04:31:03.487Z,37.88
2019-01-25T04:33:31.281Z,40.70
2019-01-25T04:35:59.119Z,36.75
2019-01-25T04:38:27.050Z,38.60
2019-01-25T04:40:54.809Z,36.42
2019-01-25T04:43:22.617Z,44.00
2019-01-25T04:45:50.375Z,29.10
2019-01-25T04:48:23.358Z,31.52
2019-01-25T04:50:51.155Z,31.80
2019-01-25T04:53:18.972Z,38.45
2019-01-25T04:55:46.772Z,37.65
2019-01-25T04:58:18.382Z,44.55
2019-01-25T05:00:46.327Z,43.28
2019-01-25T05:03:34.805Z,50.65
2019-01-25T05:06:02.714Z,39.38
2019-01-25T05:08:30.661Z,42.43
2019-01-25T05:10:58.467Z,40.15
2019-01-25T05:13:26.268Z,42.33
2019-01-25T05:15:54.064Z,38.78
2019-01-25T05:18:21.906Z,42.80
2019-01-25T05:20:50.884Z,40.83
2019-01-25T05:23:18.822Z,40.73
2019-01-25T05:25:46.611Z,38.20
2019-01-25T05:28:18.737Z,30.62
2019-01-25T05:31:02.489Z,36.08
2019-01-25T05:33:30.327Z,37.05
2019-01-25T05:35:58.126Z,36.10
2019-01-25T05:38:25.939Z,36.38
2019-01-25T05:40:53.776Z,38.00
2019-01-25T05:43:21.604Z,41.70
2019-01-25T05:45:49.387Z,36.90
2019-01-25T05:48:17.286Z,37.10
2019-01-25T05:50:45.094Z,33.75
2019-01-25T05:53:12.898Z,30.30
2019-01-25T05:55:40.741Z,32.10
2019-01-25T05:58:09.029Z,32.42
2019-01-25T06:00:39.280Z,35.05
2019-01-25T06:03:12.764Z,33.88
2019-01-25T06:05:41.516Z,42.33
2019-01-25T06:11:45.779Z,35.68
2019-01-25T06:14:14.287Z,36.73
2019-01-25T06:16:45.545Z,32.58
2019-01-25T06:19:33.603Z,35.90
2019-01-25T06:22:13.755Z,34.95
2019-01-25T06:24:46.787Z,34.10
2019-01-25T06:27:14.619Z,30.35
2019-01-25T06:29:49.621Z,31.80
2019-01-25T06:32:26.805Z,37.53
2019-01-25T06:34:54.561Z,34.88
2019-01-25T06:37:22.499Z,32.93
2019-01-25T06:39:50.319Z,30.15
2019-01-25T06:42:18.118Z,34.85
2019-01-25T06:44:45.959Z,35.83
2019-01-25T06:47:13.748Z,34.38
2019-01-25T06:49:41.597Z,33.13
2019-01-25T06:52:09.386Z,33.98
2019-01-25T06:54:37.227Z,37.58
2019-01-25T06:57:16.522Z,35.15
2019-01-25T06:59:44.337Z,36.05
2019-01-25T07:02:31.732Z,27.98
2019-01-25T07:04:59.527Z,27.73
2019-01-25T07:07:37.925Z,31.05
2019-01-25T07:10:11.736Z,32.10
2019-01-25T07:12:39.520Z,27.73
2019-01-25T07:15:09.075Z,30.32
2019-01-25T07:17:37.352Z,31.57
2019-01-25T07:20:08.661Z,32.30
2019-01-25T07:22:36.406Z,30.30
2019-01-25T07:25:06.551Z,32.35
2019-01-25T07:27:34.366Z,30.57
2019-01-25T07:30:02.586Z,33.08
2019-01-25T07:32:30.427Z,37.78
2019-01-25T07:34:58.195Z,36.85
2019-01-25T07:37:31.167Z,30.30
2019-01-25T07:39:58.954Z,32.48
2019-01-25T07:42:26.796Z,29.63
2019-01-25T07:44:54.622Z,34.92
2019-01-25T07:47:32.826Z,33.10
2019-01-25T07:50:00.854Z,28.67
2019-01-25T07:52:28.925Z,31.48
2019-01-25T07:54:56.921Z,37.28
2019-01-25T07:57:25.010Z,28.10
2019-01-25T07:59:53.668Z,30.27
2019-01-25T08:02:21.541Z,31.12
2019-01-25T08:04:49.326Z,29.10
2019-01-25T08:07:17.117Z,30.23
2019-01-25T08:09:44.961Z,27.98
2019-01-25T08:12:12.783Z,30.08
2019-01-25T08:14:40.692Z,28.98
2019-01-25T08:17:08.488Z,28.47
2019-01-25T08:19:36.321Z,34.75
2019-01-25T08:22:04.078Z,31.45
2019-01-25T08:24:31.920Z,30.92
2019-01-25T08:27:19.983Z,33.43
2019-01-25T08:29:47.898Z,36.13
2019-01-25T08:32:15.692Z,32.35
2019-01-25T08:34:43.541Z,34.45
2019-01-25T08:37:30.790Z,36.45
2019-01-25T08:39:58.628Z,38.10
2019-01-25T08:42:26.463Z,34.43
2019-01-25T08:44:54.296Z,40.52
2019-01-25T08:47:27.301Z,36.00
2019-01-25T08:49:58.007Z,37.67
2019-01-25T08:52:27.079Z,36.53
2019-01-25T08:54:54.859Z,36.93
2019-01-25T08:57:22.689Z,38.20
2019-01-25T08:59:50.427Z,37.57
2019-01-25T09:02:18.230Z,41.57
2019-01-25T09:04:46.029Z,46.07
2019-01-25T09:07:13.891Z,41.17
2019-01-25T09:10:01.159Z,46.43
2019-01-25T09:12:29.067Z,42.30
2019-01-25T09:14:56.815Z,43.73
2019-01-25T09:17:24.652Z,45.17
2019-01-25T09:19:52.467Z,41.83
2019-01-25T09:22:20.281Z,45.67
2019-01-25T09:24:48.074Z,47.80
2019-01-25T09:27:15.919Z,47.77
2019-01-25T09:29:43.762Z,43.03
2019-01-25T09:32:12.221Z,43.27
2019-01-25T09:34:40.080Z,43.57
2019-01-25T09:37:07.871Z,45.50
2019-01-25T09:39:35.685Z,43.80
2019-01-25T09:42:03.504Z,46.37
2019-01-25T09:44:31.291Z,39.63
2019-01-25T09:46:59.085Z,38.17
2019-01-25T09:49:32.103Z,37.83
2019-01-25T09:51:59.898Z,37.33
2019-01-25T09:54:27.657Z,40.73
2019-01-25T09:56:55.651Z,37.40
2019-01-25T09:59:23.786Z,38.77
2019-01-25T10:01:51.601Z,40.87
2019-01-25T10:04:19.433Z,39.43
2019-01-25T10:06:47.904Z,45.57
2019-01-25T10:09:20.771Z,45.17
2019-01-25T10:11:48.574Z,45.10
2019-01-25T10:14:16.373Z,47.77
2019-01-25T10:16:44.168Z,41.17
2019-01-25T10:19:30.966Z,42.70
2019-01-25T10:21:58.713Z,40.43
2019-01-25T10:24:26.539Z,33.57
2019-01-25T10:26:54.288Z,38.50
2019-01-25T10:29:22.052Z,28.33
2019-01-25T10:31:49.941Z,34.60
2019-01-25T10:34:17.861Z,36.17
2019-01-25T10:36:45.808Z,32.37
2019-01-25T10:39:13.557Z,34.47
2019-01-25T10:41:41.397Z,32.03
2019-01-25T10:44:09.194Z,34.97
2019-01-25T10:46:37.028Z,33.13
2019-01-25T10:49:04.819Z,31.50
2019-01-25T10:51:32.621Z,36.37
2019-01-25T10:54:00.443Z,31.07
2019-01-25T10:56:45.096Z,34.77
2019-01-25T10:59:12.841Z,30.40
2019-01-25T11:01:40.582Z,36.37
2019-01-25T11:04:11.549Z,32.97
2019-01-25T11:06:38.110Z,28.10
2019-01-25T11:09:21.130Z,21.77
2019-01-25T11:11:48.895Z,30.53
2019-01-25T11:14:16.699Z,29.57
2019-01-25T11:16:44.487Z,29.23
2019-01-25T11:19:30.860Z,23.27
2019-01-25T11:21:58.672Z,30.37
2019-01-25T11:24:26.416Z,25.83
2019-01-25T11:26:54.178Z,28.53
2019-01-25T11:29:22.073Z,23.90
2019-01-25T11:31:49.857Z,28.00
2019-01-25T11:34:17.652Z,28.50
2019-01-25T11:36:45.514Z,22.57
2019-01-25T11:39:13.316Z,22.30
2019-01-25T11:41:52.407Z,28.70
2019-01-25T11:44:20.179Z,25.37
2019-01-25T11:46:47.999Z,22.67
2019-01-25T11:49:15.815Z,21.17
2019-01-25T11:51:43.600Z,20.80
2019-01-25T11:54:11.364Z,23.37
2019-01-25T11:56:39.160Z,17.40
2019-01-25T11:59:06.936Z,20.10
2019-01-25T12:01:34.750Z,22.93
2019-01-25T12:04:02.610Z,30.90
2019-01-25T12:06:30.415Z,21.20
2019-01-25T12:08:58.245Z,17.83
2019-01-25T12:11:26.032Z,25.10
2019-01-25T12:13:53.817Z,24.03
2019-01-25T12:16:21.655Z,23.00
2019-01-25T12:18:54.834Z,22.33
2019-01-25T12:21:23.660Z,20.40
2019-01-25T12:23:51.438Z,25.10
2019-01-25T12:26:19.300Z,21.23
2019-01-25T12:28:47.045Z,23.37
2019-01-25T12:31:14.956Z,20.57
2019-01-25T12:33:42.742Z,17.93
2019-01-25T12:36:10.540Z,19.50
2019-01-25T12:38:38.422Z,33.33
2019-01-25T12:41:06.213Z,21.33
2019-01-25T12:43:34.048Z,20.70
2019-01-25T12:46:01.861Z,24.93
2019-01-25T12:48:29.772Z,22.03
2019-01-25T12:51:19.532Z,23.90
2019-01-25T12:53:47.346Z,22.10
2019-01-25T12:56:15.141Z,21.47
2019-01-25T12:58:42.964Z,24.03
2019-01-25T13:01:11.477Z,23.93
2019-01-25T13:03:39.420Z,23.77
2019-01-25T13:06:08.107Z,18.47
2019-01-25T13:08:35.876Z,20.17
2019-01-25T13:11:04.138Z,23.70
2019-01-25T13:13:31.945Z,21.73
2019-01-25T13:15:59.993Z,18.37
2019-01-25T13:18:27.972Z,19.60
2019-01-25T13:20:55.860Z,26.00
2019-01-25T13:23:23.631Z,21.43
2019-01-25T13:25:52.263Z,20.83
2019-01-25T13:28:20.620Z,27.73
2019-01-25T13:30:48.432Z,28.60
2019-01-25T13:33:16.343Z,26.37
2019-01-25T13:35:44.089Z,34.30
2019-01-25T13:38:11.893Z,29.40
2019-01-25T13:40:39.691Z,28.60
2019-01-25T13:43:07.536Z,24.93
2019-01-25T13:45:35.376Z,27.70
2019-01-25T13:48:08.456Z,28.43
2019-01-25T13:50:36.255Z,26.13
2019-01-25T13:53:04.043Z,25.77
2019-01-25T13:55:32.633Z,26.90
2019-01-25T13:58:25.010Z,24.20
2019-01-25T14:00:52.841Z,29.15
2019-01-25T14:03:20.578Z,27.50
2019-01-25T14:05:48.342Z,29.10
2019-01-25T14:08:16.288Z,26.90
2019-01-25T14:10:44.208Z,26.43
2019-01-25T14:13:11.962Z,27.20
2019-01-25T14:15:39.789Z,25.73
2019-01-25T14:18:07.637Z,32.40
2019-01-25T14:20:35.411Z,29.17
2019-01-25T14:23:03.155Z,22.77
2019-01-25T14:25:30.992Z,31.17
2019-01-25T14:27:58.942Z,28.47
2019-01-25T14:30:30.609Z,30.23
2019-01-25T14:33:03.056Z,34.10
2019-01-25T14:35:44.099Z,30.03
2019-01-25T14:38:28.637Z,27.47
2019-01-25T14:40:56.463Z,27.70
2019-01-25T14:43:25.594Z,30.77
2019-01-25T14:46:09.837Z,32.60
2019-01-25T14:48:38.321Z,131.23
2019-01-25T14:51:06.472Z,32.67
2019-01-25T14:53:34.258Z,42.63
2019-01-25T14:56:02.066Z,36.23
2019-01-25T14:58:31.780Z,43.47
2019-01-25T15:01:03.743Z,38.83
2019-01-25T15:03:31.574Z,35.63
2019-01-25T15:05:59.407Z,34.97
2019-01-25T15:08:27.219Z,37.87
2019-01-25T15:10:55.049Z,37.87
2019-01-25T15:13:23.204Z,42.30
2019-01-25T15:15:50.979Z,47.57
2019-01-25T15:18:23.813Z,43.73
2019-01-25T15:20:51.628Z,48.17
2019-01-25T15:23:19.444Z,44.97
2019-01-25T15:25:47.317Z,39.63
2019-01-25T15:28:15.185Z,50.33
2019-01-25T15:30:42.995Z,51.57
2019-01-25T15:33:10.839Z,50.33
2019-01-25T15:35:38.633Z,44.83
2019-01-25T15:38:11.521Z,120.53
2019-01-25T15:40:39.346Z,48.77
2019-01-25T15:43:07.192Z,42.70
2019-01-25T15:45:35.181Z,44.50
2019-01-25T15:48:03.451Z,44.07
2019-01-25T15:50:32.486Z,48.07
2019-01-25T15:53:00.274Z,50.23
2019-01-25T15:55:28.184Z,46.47
2019-01-25T15:57:56.059Z,39.87
2019-01-25T16:00:25.862Z,44.17
2019-01-25T16:02:53.746Z,47.30
2019-01-25T16:05:23.126Z,49.13
2019-01-25T16:07:51.151Z,42.33
2019-01-25T16:10:19.997Z,45.10
2019-01-25T16:12:48.049Z,50.90
2019-01-25T16:15:21.873Z,43.73
2019-01-25T16:17:51.917Z,42.40
2019-01-25T16:20:19.910Z,42.73
2019-01-25T16:22:50.528Z,44.53
2019-01-25T16:25:22.456Z,55.70
2019-01-25T16:27:50.397Z,66.23
2019-01-25T16:30:25.219Z,47.57
2019-01-25T16:32:56.293Z,44.40
2019-01-25T16:35:24.130Z,45.70
2019-01-25T16:37:52.180Z,48.67
2019-01-25T16:40:22.411Z,49.80
2019-01-25T16:42:53.076Z,45.07
2019-01-25T16:45:36.499Z,47.67
2019-01-25T16:48:05.059Z,49.07
2019-01-25T16:50:33.280Z,46.60
2019-01-25T16:53:01.063Z,54.73
2019-01-25T16:55:30.198Z,53.37
2019-01-25T16:57:58.070Z,51.93
2019-01-25T17:00:29.199Z,49.17
2019-01-25T17:02:57.142Z,49.23
2019-01-25T17:05:25.924Z,50.20
2019-01-25T17:07:53.915Z,52.33
2019-01-25T17:10:21.706Z,44.17
2019-01-25T17:12:49.518Z,58.67
2019-01-25T17:15:17.309Z,53.70
2019-01-25T17:17:45.281Z,50.93
2019-01-25T17:20:20.026Z,50.33
2019-01-25T17:22:44.091Z,55.97
2019-01-25T17:25:12.129Z,52.47
2019-01-25T17:27:42.512Z,49.73
2019-01-25T17:30:18.617Z,56.50
2019-01-25T17:33:02.316Z,46.10
2019-01-25T17:35:31.937Z,56.07
2019-01-25T17:38:02.148Z,56.73
2019-01-25T17:40:46.406Z,50.40
2019-01-25T17:43:09.829Z,54.53
2019-01-25T17:45:37.597Z,54.67
2019-01-25T17:48:06.617Z,59.73
2019-01-25T17:50:34.382Z,55.87
2019-01-25T17:53:02.344Z,55.90
2019-01-25T17:55:30.169Z,54.73
2019-01-25T17:57:58.047Z,49.03
2019-01-25T18:00:30.874Z,51.50
2019-01-25T18:02:58.647Z,50.17
2019-01-25T18:05:26.620Z,58.57
2019-01-25T18:07:59.653Z,49.03
2019-01-25T18:10:27.474Z,51.27
2019-01-25T18:13:00.122Z,74.10
2019-01-25T18:15:30.223Z,55.33
2019-01-25T18:18:00.834Z,52.00
2019-01-25T18:20:29.888Z,49.73
2019-01-25T18:22:59.454Z,60.13
2019-01-25T18:26:12.979Z,64.20
2019-01-25T18:29:06.513Z,52.63
2019-01-25T18:31:37.840Z,76.57
2019-01-25T18:34:08.583Z,52.37
2019-01-25T18:36:36.748Z,52.97
2019-01-25T18:39:07.867Z,47.43
2019-01-25T18:41:36.889Z,47.53
2019-01-25T18:44:09.379Z,50.60
2019-01-25T18:46:41.657Z,50.37
2019-01-25T18:49:09.537Z,47.80
2019-01-25T18:51:39.322Z,45.20
2019-01-25T18:54:26.594Z,46.77
2019-01-25T18:56:54.917Z,44.40
2019-01-25T18:59:27.938Z,59.67
2019-01-25T19:02:04.944Z,44.87
2019-01-25T19:04:32.793Z,46.00
2019-01-25T19:07:00.649Z,40.83
2019-01-25T19:09:28.517Z,48.53
2019-01-25T19:11:56.377Z,41.30
2019-01-25T19:14:24.188Z,46.80
2019-01-25T19:16:52.019Z,46.03
2019-01-25T19:19:19.843Z,44.53
2019-01-25T19:21:47.668Z,47.13
2019-01-25T19:24:15.533Z,38.87
2019-01-25T19:26:43.311Z,53.17
2019-01-25T19:29:11.303Z,44.77
2019-01-25T19:31:43.961Z,40.57
2019-01-25T19:34:18.440Z,43.27
2019-01-25T19:36:50.388Z,36.17
2019-01-25T19:39:21.333Z,44.87
2019-01-25T19:41:49.193Z,44.83
2019-01-25T19:44:23.832Z,44.77
2019-01-25T19:46:53.108Z,45.47
2019-01-25T19:49:23.462Z,35.60
2019-01-25T19:51:54.339Z,64.03
2019-01-25T19:54:25.302Z,31.27
2019-01-25T19:56:57.809Z,44.77
2019-01-25T19:59:29.092Z,37.20
2019-01-25T20:02:01.434Z,36.10
2019-01-25T20:04:31.361Z,44.37
2019-01-25T20:07:01.835Z,43.27
2019-01-25T20:09:37.313Z,35.90
2019-01-25T20:12:07.394Z,35.43
2019-01-25T20:14:41.123Z,41.87
2019-01-25T20:17:10.156Z,32.90
2019-01-25T20:19:38.007Z,34.60
2019-01-25T20:22:07.501Z,44.47
2019-01-25T20:24:40.980Z,35.33
2019-01-25T20:27:11.164Z,62.40
2019-01-25T20:29:45.021Z,48.67
2019-01-25T20:32:21.621Z,37.17
2019-01-25T20:34:50.098Z,30.17
2019-01-25T20:37:18.097Z,35.90
2019-01-25T20:39:52.438Z,35.30
2019-01-25T20:42:21.195Z,28.37
2019-01-25T20:44:50.386Z,31.67
2019-01-25T20:47:18.647Z,45.93
2019-01-25T20:49:48.403Z,28.83
2019-01-25T20:52:16.264Z,33.10
2019-01-25T20:54:58.918Z,31.50
2019-01-25T20:57:34.238Z,39.77
2019-01-25T21:00:08.381Z,35.13
2019-01-25T21:02:36.311Z,34.60
2019-01-25T21:05:05.239Z,32.10
2019-01-25T21:07:38.153Z,30.27
2019-01-25T21:10:10.520Z,29.73
2019-01-25T21:12:38.433Z,35.40
2019-01-25T21:15:08.883Z,34.63
2019-01-25T21:17:36.694Z,30.67
2019-01-25T21:20:09.177Z,42.97
2019-01-25T21:22:36.987Z,32.40
2019-01-25T21:25:05.233Z,33.87
2019-01-25T21:27:33.200Z,34.47
2019-01-25T21:30:01.014Z,32.17
2019-01-25T21:32:31.469Z,34.63
2019-01-25T21:34:59.861Z,30.87
2019-01-25T21:37:28.149Z,37.80
2019-01-25T21:39:55.966Z,35.33
2019-01-25T21:42:23.997Z,39.63
2019-01-25T21:44:51.800Z,35.13
2019-01-25T21:47:19.676Z,28.10
2019-01-25T21:49:47.772Z,33.13
2019-01-25T21:52:15.948Z,31.30
2019-01-25T21:54:43.885Z,41.20
2019-01-25T21:57:11.770Z,34.03
2019-01-25T21:59:39.572Z,30.10
2019-01-25T22:02:08.122Z,34.43
2019-01-25T22:04:36.838Z,35.57
2019-01-25T22:07:05.499Z,31.97
2019-01-25T22:09:33.342Z,32.93
2019-01-25T22:12:07.807Z,34.30
2019-01-25T22:14:35.613Z,26.83
2019-01-25T22:17:03.502Z,30.13
2019-01-25T22:19:31.416Z,34.23
2019-01-25T22:21:59.326Z,29.00
2019-01-25T22:24:27.107Z,29.63
2019-01-25T22:26:54.944Z,29.77
2019-01-25T22:29:23.177Z,36.33
2019-01-25T22:31:51.013Z,28.40
2019-01-25T22:34:18.793Z,37.50
2019-01-25T22:36:46.636Z,32.53
2019-01-25T22:39:14.559Z,34.53
2019-01-25T22:41:42.372Z,37.60
2019-01-25T22:44:10.148Z,25.90
2019-01-25T22:46:37.932Z,32.47
2019-01-25T22:49:10.883Z,34.53
2019-01-25T22:51:38.625Z,33.13
2019-01-25T22:54:06.388Z,27.57
2019-01-25T22:56:34.195Z,28.97
2019-01-25T22:59:02.320Z,29.67
2019-01-25T23:01:34.368Z,29.90
2019-01-25T23:04:26.588Z,26.90
2019-01-25T23:07:07.134Z,25.73
2019-01-25T23:09:56.257Z,29.83
2019-01-25T23:12:24.273Z,29.27
2019-01-25T23:14:52.067Z,25.40
2019-01-25T23:17:20.130Z,33.67
2019-01-25T23:19:47.937Z,23.93
2019-01-25T23:22:15.942Z,26.37
2019-01-25T23:24:43.796Z,24.53
2019-01-25T23:27:11.812Z,23.33
2019-01-25T23:29:39.659Z,25.70
2019-01-25T23:32:07.446Z,30.77
2019-01-25T23:34:36.010Z,27.73
2019-01-25T23:37:04.193Z,25.83
2019-01-25T23:39:32.022Z,26.70
2019-01-25T23:41:59.839Z,23.53
2019-01-25T23:44:29.932Z,22.93
2019-01-25T23:46:57.761Z,22.57
2019-01-25T23:49:25.580Z,21.73
2019-01-25T23:51:53.355Z,23.10
2019-01-25T23:54:21.233Z,20.93
2019-01-25T23:56:49.014Z,21.07
2019-01-25T23:59:16.800Z,24.10
